sensor_id;sensor_type;location;lat;lon;timestamp;P1;durP1;ratioP1;P2;durP2;ratioP2
59127;SDS011;44912;52.754;5.994;2022-09-16T00:00:47;7.80;;;1.38;;
59127;SDS011;44912;52.754;5.994;2022-09-16T00:03:12;7.90;;;1.10;;
59127;SDS011;44912;52.754;5.994;2022-09-16T00:05:41;8.93;;;1.10;;
59127;SDS011;44912;52.754;5.994;2022-09-16T00:08:11;8.10;;;1.33;;
59127;SDS011;44912;52.754;5.994;2022-09-16T00:10:38;9.10;;;1.50;;
59127;SDS011;44912;52.754;5.994;2022-09-16T00:13:04;5.88;;;1.10;;
59127;SDS011;44912;52.754;5.994;2022-09-16T00:15:30;7.05;;;1.02;;
59127;SDS011;44912;52.754;5.994;2022-09-16T00:17:56;8.65;;;1.38;;
59127;SDS011;44912;52.754;5.994;2022-09-16T00:20:22;7.13;;;1.23;;
59127;SDS011;44912;52.754;5.994;2022-09-16T00:22:48;5.80;;;1.00;;
59127;SDS011;44912;52.754;5.994;2022-09-16T00:25:13;5.43;;;1.05;;
59127;SDS011;44912;52.754;5.994;2022-09-16T00:27:39;7.70;;;1.05;;
59127;SDS011;44912;52.754;5.994;2022-09-16T00:30:04;7.95;;;1.55;;
59127;SDS011;44912;52.754;5.994;2022-09-16T00:32:30;8.60;;;1.20;;
59127;SDS011;44912;52.754;5.994;2022-09-16T00:34:56;5.75;;;1.00;;
59127;SDS011;44912;52.754;5.994;2022-09-16T00:37:21;8.48;;;1.10;;
59127;SDS011;44912;52.754;5.994;2022-09-16T00:39:48;7.75;;;1.23;;
59127;SDS011;44912;52.754;5.994;2022-09-16T00:42:15;9.00;;;1.30;;
59127;SDS011;44912;52.754;5.994;2022-09-16T00:44:52;8.68;;;1.48;;
59127;SDS011;44912;52.754;5.994;2022-09-16T00:47:25;7.50;;;1.20;;
59127;SDS011;44912;52.754;5.994;2022-09-16T00:50:02;7.28;;;1.13;;
59127;SDS011;44912;52.754;5.994;2022-09-16T00:52:34;7.43;;;1.15;;
59127;SDS011;44912;52.754;5.994;2022-09-16T00:55:02;6.55;;;1.05;;
59127;SDS011;44912;52.754;5.994;2022-09-16T00:57:31;7.30;;;0.90;;
59127;SDS011;44912;52.754;5.994;2022-09-16T00:59:57;7.63;;;0.90;;
59127;SDS011;44912;52.754;5.994;2022-09-16T01:02:24;8.77;;;1.00;;
59127;SDS011;44912;52.754;5.994;2022-09-16T01:07:28;6.70;;;0.98;;
59127;SDS011;44912;52.754;5.994;2022-09-16T01:09:59;5.30;;;1.10;;
59127;SDS011;44912;52.754;5.994;2022-09-16T01:12:25;5.40;;;0.95;;
59127;SDS011;44912;52.754;5.994;2022-09-16T01:14:53;3.92;;;1.00;;
59127;SDS011;44912;52.754;5.994;2022-09-16T01:17:25;5.22;;;1.20;;
59127;SDS011;44912;52.754;5.994;2022-09-16T01:31:42;4.22;;;0.90;;
59127;SDS011;44912;52.754;5.994;2022-09-16T01:39:56;5.80;;;1.02;;
59127;SDS011;44912;52.754;5.994;2022-09-16T01:45:21;8.23;;;1.20;;
59127;SDS011;44912;52.754;5.994;2022-09-16T01:48:16;6.88;;;1.33;;
59127;SDS011;44912;52.754;5.994;2022-09-16T01:55:59;4.88;;;1.17;;
59127;SDS011;44912;52.754;5.994;2022-09-16T02:01:05;9.52;;;1.38;;
59127;SDS011;44912;52.754;5.994;2022-09-16T02:03:36;4.38;;;1.02;;
59127;SDS011;44912;52.754;5.994;2022-09-16T02:06:07;3.90;;;1.02;;
59127;SDS011;44912;52.754;5.994;2022-09-16T02:08:39;4.80;;;1.20;;
59127;SDS011;44912;52.754;5.994;2022-09-16T02:11:13;6.57;;;1.30;;
59127;SDS011;44912;52.754;5.994;2022-09-16T02:13:43;6.47;;;1.40;;
59127;SDS011;44912;52.754;5.994;2022-09-16T02:16:21;7.38;;;1.63;;
59127;SDS011;44912;52.754;5.994;2022-09-16T02:18:59;10.02;;;1.58;;
59127;SDS011;44912;52.754;5.994;2022-09-16T02:21:30;6.70;;;2.00;;
59127;SDS011;44912;52.754;5.994;2022-09-16T02:23:59;5.32;;;1.30;;
59127;SDS011;44912;52.754;5.994;2022-09-16T02:26:28;6.00;;;1.10;;
59127;SDS011;44912;52.754;5.994;2022-09-16T02:28:58;6.13;;;1.33;;
59127;SDS011;44912;52.754;5.994;2022-09-16T02:31:28;8.60;;;1.63;;
59127;SDS011;44912;52.754;5.994;2022-09-16T02:34:05;6.68;;;1.00;;
59127;SDS011;44912;52.754;5.994;2022-09-16T02:36:37;6.20;;;1.00;;
59127;SDS011;44912;52.754;5.994;2022-09-16T02:39:07;7.95;;;1.45;;
59127;SDS011;44912;52.754;5.994;2022-09-16T02:41:36;5.60;;;1.13;;
59127;SDS011;44912;52.754;5.994;2022-09-16T02:44:04;5.25;;;1.05;;
59127;SDS011;44912;52.754;5.994;2022-09-16T02:46:37;7.35;;;1.20;;
59127;SDS011;44912;52.754;5.994;2022-09-16T02:49:13;8.25;;;1.25;;
59127;SDS011;44912;52.754;5.994;2022-09-16T02:51:58;8.15;;;1.30;;
59127;SDS011;44912;52.754;5.994;2022-09-16T02:54:49;8.82;;;1.20;;
59127;SDS011;44912;52.754;5.994;2022-09-16T02:57:22;5.50;;;1.23;;
59127;SDS011;44912;52.754;5.994;2022-09-16T02:59:48;6.93;;;1.45;;
59127;SDS011;44912;52.754;5.994;2022-09-16T03:02:14;6.13;;;1.45;;
59127;SDS011;44912;52.754;5.994;2022-09-16T03:04:39;5.38;;;0.90;;
59127;SDS011;44912;52.754;5.994;2022-09-16T03:07:05;6.50;;;1.10;;
59127;SDS011;44912;52.754;5.994;2022-09-16T03:09:35;6.70;;;1.65;;
59127;SDS011;44912;52.754;5.994;2022-09-16T03:14:36;4.80;;;1.00;;
59127;SDS011;44912;52.754;5.994;2022-09-16T03:17:23;6.93;;;1.15;;
59127;SDS011;44912;52.754;5.994;2022-09-16T03:31:24;9.02;;;1.67;;
59127;SDS011;44912;52.754;5.994;2022-09-16T03:36:48;7.53;;;1.42;;
59127;SDS011;44912;52.754;5.994;2022-09-16T03:39:18;7.57;;;1.20;;
59127;SDS011;44912;52.754;5.994;2022-09-16T03:41:46;7.60;;;1.10;;
59127;SDS011;44912;52.754;5.994;2022-09-16T03:44:12;8.20;;;1.30;;
59127;SDS011;44912;52.754;5.994;2022-09-16T03:46:37;13.45;;;1.55;;
59127;SDS011;44912;52.754;5.994;2022-09-16T03:49:03;5.72;;;1.00;;
59127;SDS011;44912;52.754;5.994;2022-09-16T03:51:28;7.63;;;1.15;;
59127;SDS011;44912;52.754;5.994;2022-09-16T03:53:54;9.43;;;1.40;;
59127;SDS011;44912;52.754;5.994;2022-09-16T03:56:21;6.95;;;1.00;;
59127;SDS011;44912;52.754;5.994;2022-09-16T03:58:47;5.88;;;1.10;;
59127;SDS011;44912;52.754;5.994;2022-09-16T04:01:13;8.93;;;1.00;;
59127;SDS011;44912;52.754;5.994;2022-09-16T04:03:39;8.18;;;1.40;;
59127;SDS011;44912;52.754;5.994;2022-09-16T04:06:05;6.50;;;1.23;;
59127;SDS011;44912;52.754;5.994;2022-09-16T04:08:31;9.82;;;1.50;;
59127;SDS011;44912;52.754;5.994;2022-09-16T04:11:00;8.02;;;1.60;;
59127;SDS011;44912;52.754;5.994;2022-09-16T04:13:28;9.25;;;1.20;;
59127;SDS011;44912;52.754;5.994;2022-09-16T04:15:55;11.07;;;1.50;;
59127;SDS011;44912;52.754;5.994;2022-09-16T04:18:21;8.20;;;1.55;;
59127;SDS011;44912;52.754;5.994;2022-09-16T04:20:46;10.32;;;1.30;;
59127;SDS011;44912;52.754;5.994;2022-09-16T04:23:12;10.00;;;1.10;;
59127;SDS011;44912;52.754;5.994;2022-09-16T04:25:37;6.90;;;1.38;;
59127;SDS011;44912;52.754;5.994;2022-09-16T04:28:05;10.68;;;1.25;;
59127;SDS011;44912;52.754;5.994;2022-09-16T04:30:31;6.45;;;1.35;;
59127;SDS011;44912;52.754;5.994;2022-09-16T04:32:56;13.40;;;1.50;;
59127;SDS011;44912;52.754;5.994;2022-09-16T04:35:22;11.48;;;1.30;;
59127;SDS011;44912;52.754;5.994;2022-09-16T04:37:49;9.80;;;1.30;;
59127;SDS011;44912;52.754;5.994;2022-09-16T04:40:15;9.02;;;1.13;;
59127;SDS011;44912;52.754;5.994;2022-09-16T04:42:46;6.93;;;1.20;;
59127;SDS011;44912;52.754;5.994;2022-09-16T04:45:15;7.78;;;1.27;;
59127;SDS011;44912;52.754;5.994;2022-09-16T04:47:42;6.50;;;1.08;;
59127;SDS011;44912;52.754;5.994;2022-09-16T04:50:07;7.80;;;1.27;;
59127;SDS011;44912;52.754;5.994;2022-09-16T04:52:33;7.55;;;1.13;;
59127;SDS011;44912;52.754;5.994;2022-09-16T04:54:59;10.27;;;1.73;;
59127;SDS011;44912;52.754;5.994;2022-09-16T04:57:24;9.50;;;1.15;;
59127;SDS011;44912;52.754;5.994;2022-09-16T04:59:53;6.50;;;1.05;;
59127;SDS011;44912;52.754;5.994;2022-09-16T05:02:19;8.27;;;0.93;;
59127;SDS011;44912;52.754;5.994;2022-09-16T05:04:44;6.60;;;1.00;;
59127;SDS011;44912;52.754;5.994;2022-09-16T05:07:10;10.05;;;1.45;;
59127;SDS011;44912;52.754;5.994;2022-09-16T05:09:35;6.65;;;1.05;;
59127;SDS011;44912;52.754;5.994;2022-09-16T05:12:01;7.57;;;1.05;;
59127;SDS011;44912;52.754;5.994;2022-09-16T05:14:27;9.15;;;1.27;;
59127;SDS011;44912;52.754;5.994;2022-09-16T05:16:53;10.90;;;1.48;;
59127;SDS011;44912;52.754;5.994;2022-09-16T05:19:18;11.77;;;1.35;;
59127;SDS011;44912;52.754;5.994;2022-09-16T05:21:44;6.35;;;1.10;;
59127;SDS011;44912;52.754;5.994;2022-09-16T05:24:10;9.00;;;1.17;;
59127;SDS011;44912;52.754;5.994;2022-09-16T05:26:39;8.77;;;1.30;;
59127;SDS011;44912;52.754;5.994;2022-09-16T05:29:12;10.13;;;1.35;;
59127;SDS011;44912;52.754;5.994;2022-09-16T05:31:40;7.00;;;1.17;;
59127;SDS011;44912;52.754;5.994;2022-09-16T05:34:10;10.13;;;1.42;;
59127;SDS011;44912;52.754;5.994;2022-09-16T05:36:38;10.82;;;1.48;;
59127;SDS011;44912;52.754;5.994;2022-09-16T05:39:05;11.02;;;1.45;;
59127;SDS011;44912;52.754;5.994;2022-09-16T05:41:30;8.80;;;1.20;;
59127;SDS011;44912;52.754;5.994;2022-09-16T05:43:57;9.50;;;1.70;;
59127;SDS011;44912;52.754;5.994;2022-09-16T05:46:24;9.85;;;1.63;;
59127;SDS011;44912;52.754;5.994;2022-09-16T05:48:50;7.80;;;1.08;;
59127;SDS011;44912;52.754;5.994;2022-09-16T05:51:20;6.00;;;1.30;;
59127;SDS011;44912;52.754;5.994;2022-09-16T05:53:48;11.43;;;1.38;;
59127;SDS011;44912;52.754;5.994;2022-09-16T05:56:15;10.40;;;2.03;;
59127;SDS011;44912;52.754;5.994;2022-09-16T05:58:46;9.65;;;1.33;;
59127;SDS011;44912;52.754;5.994;2022-09-16T06:01:13;9.65;;;1.35;;
59127;SDS011;44912;52.754;5.994;2022-09-16T06:03:44;6.65;;;1.08;;
59127;SDS011;44912;52.754;5.994;2022-09-16T06:06:24;12.25;;;1.70;;
59127;SDS011;44912;52.754;5.994;2022-09-16T06:08:52;9.95;;;1.20;;
59127;SDS011;44912;52.754;5.994;2022-09-16T06:11:19;8.93;;;1.38;;
59127;SDS011;44912;52.754;5.994;2022-09-16T06:13:45;8.07;;;1.30;;
59127;SDS011;44912;52.754;5.994;2022-09-16T06:16:11;7.80;;;1.40;;
59127;SDS011;44912;52.754;5.994;2022-09-16T06:18:38;7.35;;;1.17;;
59127;SDS011;44912;52.754;5.994;2022-09-16T06:21:09;7.43;;;1.20;;
59127;SDS011;44912;52.754;5.994;2022-09-16T06:23:35;6.70;;;1.40;;
59127;SDS011;44912;52.754;5.994;2022-09-16T06:26:03;6.70;;;1.08;;
59127;SDS011;44912;52.754;5.994;2022-09-16T06:28:34;8.00;;;1.25;;
59127;SDS011;44912;52.754;5.994;2022-09-16T06:31:04;6.72;;;0.90;;
59127;SDS011;44912;52.754;5.994;2022-09-16T06:33:38;4.63;;;1.15;;
59127;SDS011;44912;52.754;5.994;2022-09-16T06:36:15;6.13;;;0.90;;
59127;SDS011;44912;52.754;5.994;2022-09-16T06:38:45;6.07;;;0.90;;
59127;SDS011;44912;52.754;5.994;2022-09-16T06:41:12;7.40;;;1.30;;
59127;SDS011;44912;52.754;5.994;2022-09-16T06:43:39;6.60;;;1.17;;
59127;SDS011;44912;52.754;5.994;2022-09-16T06:46:06;6.05;;;1.02;;
59127;SDS011;44912;52.754;5.994;2022-09-16T06:48:37;4.65;;;0.80;;
59127;SDS011;44912;52.754;5.994;2022-09-16T06:51:05;8.02;;;1.05;;
59127;SDS011;44912;52.754;5.994;2022-09-16T06:53:34;7.93;;;1.42;;
59127;SDS011;44912;52.754;5.994;2022-09-16T06:56:03;3.42;;;0.80;;
59127;SDS011;44912;52.754;5.994;2022-09-16T06:58:31;4.70;;;0.90;;
59127;SDS011;44912;52.754;5.994;2022-09-16T07:00:58;9.85;;;1.20;;
59127;SDS011;44912;52.754;5.994;2022-09-16T07:03:28;4.88;;;1.00;;
59127;SDS011;44912;52.754;5.994;2022-09-16T07:05:58;6.00;;;0.90;;
59127;SDS011;44912;52.754;5.994;2022-09-16T07:08:27;7.45;;;1.65;;
59127;SDS011;44912;52.754;5.994;2022-09-16T07:10:57;6.97;;;1.17;;
59127;SDS011;44912;52.754;5.994;2022-09-16T07:13:24;7.00;;;1.10;;
59127;SDS011;44912;52.754;5.994;2022-09-16T07:15:49;10.10;;;1.15;;
59127;SDS011;44912;52.754;5.994;2022-09-16T07:18:15;7.70;;;1.70;;
59127;SDS011;44912;52.754;5.994;2022-09-16T07:20:41;9.77;;;1.38;;
59127;SDS011;44912;52.754;5.994;2022-09-16T07:23:06;8.38;;;1.17;;
59127;SDS011;44912;52.754;5.994;2022-09-16T07:25:32;12.43;;;1.40;;
59127;SDS011;44912;52.754;5.994;2022-09-16T07:27:57;8.80;;;1.30;;
59127;SDS011;44912;52.754;5.994;2022-09-16T07:30:23;9.25;;;1.27;;
59127;SDS011;44912;52.754;5.994;2022-09-16T07:32:48;10.48;;;1.20;;
59127;SDS011;44912;52.754;5.994;2022-09-16T07:35:14;11.02;;;1.60;;
59127;SDS011;44912;52.754;5.994;2022-09-16T07:37:39;7.80;;;1.45;;
59127;SDS011;44912;52.754;5.994;2022-09-16T07:40:05;11.05;;;1.30;;
59127;SDS011;44912;52.754;5.994;2022-09-16T07:42:31;9.75;;;1.52;;
59127;SDS011;44912;52.754;5.994;2022-09-16T07:44:57;8.65;;;1.30;;
59127;SDS011;44912;52.754;5.994;2022-09-16T07:47:22;7.10;;;1.20;;
59127;SDS011;44912;52.754;5.994;2022-09-16T07:49:48;7.88;;;1.50;;
59127;SDS011;44912;52.754;5.994;2022-09-16T07:52:19;7.32;;;1.23;;
59127;SDS011;44912;52.754;5.994;2022-09-16T07:54:47;8.52;;;1.40;;
59127;SDS011;44912;52.754;5.994;2022-09-16T07:57:14;8.45;;;1.58;;
59127;SDS011;44912;52.754;5.994;2022-09-16T07:59:40;6.82;;;1.20;;
59127;SDS011;44912;52.754;5.994;2022-09-16T08:02:05;7.43;;;0.88;;
59127;SDS011;44912;52.754;5.994;2022-09-16T08:04:31;7.88;;;0.90;;
59127;SDS011;44912;52.754;5.994;2022-09-16T08:06:56;9.15;;;1.20;;
59127;SDS011;44912;52.754;5.994;2022-09-16T08:09:22;6.28;;;1.33;;
59127;SDS011;44912;52.754;5.994;2022-09-16T08:11:47;4.90;;;1.08;;
59127;SDS011;44912;52.754;5.994;2022-09-16T08:14:13;7.57;;;1.15;;
59127;SDS011;44912;52.754;5.994;2022-09-16T08:16:39;7.38;;;1.25;;
59127;SDS011;44912;52.754;5.994;2022-09-16T08:19:04;8.30;;;1.20;;
59127;SDS011;44912;52.754;5.994;2022-09-16T08:21:30;10.90;;;1.20;;
59127;SDS011;44912;52.754;5.994;2022-09-16T08:23:55;9.82;;;1.42;;
59127;SDS011;44912;52.754;5.994;2022-09-16T08:26:21;12.48;;;1.90;;
59127;SDS011;44912;52.754;5.994;2022-09-16T08:28:48;9.52;;;1.45;;
59127;SDS011;44912;52.754;5.994;2022-09-16T08:31:14;10.18;;;1.40;;
59127;SDS011;44912;52.754;5.994;2022-09-16T08:33:41;7.45;;;1.20;;
59127;SDS011;44912;52.754;5.994;2022-09-16T08:36:10;10.50;;;1.52;;
59127;SDS011;44912;52.754;5.994;2022-09-16T08:38:41;8.13;;;1.52;;
59127;SDS011;44912;52.754;5.994;2022-09-16T08:44:04;12.68;;;1.90;;
59127;SDS011;44912;52.754;5.994;2022-09-16T08:49:16;10.25;;;1.95;;
59127;SDS011;44912;52.754;5.994;2022-09-16T08:51:52;9.75;;;1.38;;
59127;SDS011;44912;52.754;5.994;2022-09-16T08:54:34;13.10;;;1.80;;
59127;SDS011;44912;52.754;5.994;2022-09-16T08:57:31;10.07;;;1.40;;
59127;SDS011;44912;52.754;5.994;2022-09-16T09:00:13;11.05;;;1.58;;
59127;SDS011;44912;52.754;5.994;2022-09-16T09:02:45;10.77;;;1.92;;
59127;SDS011;44912;52.754;5.994;2022-09-16T09:05:31;11.82;;;1.50;;
59127;SDS011;44912;52.754;5.994;2022-09-16T09:11:18;11.85;;;1.80;;
59127;SDS011;44912;52.754;5.994;2022-09-16T09:20:02;9.93;;;1.83;;
59127;SDS011;44912;52.754;5.994;2022-09-16T09:23:10;10.38;;;1.75;;
59127;SDS011;44912;52.754;5.994;2022-09-16T09:25:50;7.60;;;1.45;;
59127;SDS011;44912;52.754;5.994;2022-09-16T09:29:26;10.65;;;1.60;;
59127;SDS011;44912;52.754;5.994;2022-09-16T09:34:17;10.98;;;1.70;;
59127;SDS011;44912;52.754;5.994;2022-09-16T09:36:59;9.05;;;1.60;;
59127;SDS011;44912;52.754;5.994;2022-09-16T09:39:45;10.70;;;1.88;;
59127;SDS011;44912;52.754;5.994;2022-09-16T09:42:23;10.05;;;1.60;;
59127;SDS011;44912;52.754;5.994;2022-09-16T09:47:47;10.18;;;2.00;;
59127;SDS011;44912;52.754;5.994;2022-09-16T09:50:18;7.72;;;1.33;;
59127;SDS011;44912;52.754;5.994;2022-09-16T09:55:42;9.48;;;1.80;;
59127;SDS011;44912;52.754;5.994;2022-09-16T09:58:11;9.57;;;1.45;;
59127;SDS011;44912;52.754;5.994;2022-09-16T10:00:51;10.18;;;1.52;;
59127;SDS011;44912;52.754;5.994;2022-09-16T10:03:20;10.38;;;1.20;;
59127;SDS011;44912;52.754;5.994;2022-09-16T10:05:46;12.10;;;1.40;;
59127;SDS011;44912;52.754;5.994;2022-09-16T10:08:18;11.10;;;1.85;;
59127;SDS011;44912;52.754;5.994;2022-09-16T10:11:00;13.75;;;2.38;;
59127;SDS011;44912;52.754;5.994;2022-09-16T10:13:28;13.10;;;1.90;;
59127;SDS011;44912;52.754;5.994;2022-09-16T10:16:08;11.77;;;2.00;;
59127;SDS011;44912;52.754;5.994;2022-09-16T10:18:39;10.05;;;1.83;;
59127;SDS011;44912;52.754;5.994;2022-09-16T10:21:06;10.73;;;1.60;;
59127;SDS011;44912;52.754;5.994;2022-09-16T10:23:34;12.20;;;1.65;;
59127;SDS011;44912;52.754;5.994;2022-09-16T10:26:17;7.30;;;1.08;;
59127;SDS011;44912;52.754;5.994;2022-09-16T10:28:57;12.30;;;2.45;;
59127;SDS011;44912;52.754;5.994;2022-09-16T10:31:26;15.13;;;2.20;;
59127;SDS011;44912;52.754;5.994;2022-09-16T10:34:03;12.65;;;2.03;;
59127;SDS011;44912;52.754;5.994;2022-09-16T10:36:38;10.23;;;2.38;;
59127;SDS011;44912;52.754;5.994;2022-09-16T10:39:04;14.32;;;2.22;;
59127;SDS011;44912;52.754;5.994;2022-09-16T10:41:33;12.07;;;2.03;;
59127;SDS011;44912;52.754;5.994;2022-09-16T10:44:12;15.20;;;2.08;;
59127;SDS011;44912;52.754;5.994;2022-09-16T10:49:19;15.23;;;2.00;;
59127;SDS011;44912;52.754;5.994;2022-09-16T10:51:48;7.72;;;1.65;;
59127;SDS011;44912;52.754;5.994;2022-09-16T10:54:25;15.18;;;2.30;;
59127;SDS011;44912;52.754;5.994;2022-09-16T10:56:52;9.38;;;1.65;;
59127;SDS011;44912;52.754;5.994;2022-09-16T10:59:18;10.32;;;1.38;;
59127;SDS011;44912;52.754;5.994;2022-09-16T11:02:04;7.60;;;1.48;;
59127;SDS011;44912;52.754;5.994;2022-09-16T11:05:01;12.38;;;1.55;;
59127;SDS011;44912;52.754;5.994;2022-09-16T11:07:58;9.98;;;1.35;;
59127;SDS011;44912;52.754;5.994;2022-09-16T11:10:51;10.05;;;1.90;;
59127;SDS011;44912;52.754;5.994;2022-09-16T11:19:08;8.68;;;1.83;;
59127;SDS011;44912;52.754;5.994;2022-09-16T11:21:44;9.45;;;1.40;;
59127;SDS011;44912;52.754;5.994;2022-09-16T11:24:36;11.85;;;1.42;;
59127;SDS011;44912;52.754;5.994;2022-09-16T11:27:19;9.65;;;1.45;;
59127;SDS011;44912;52.754;5.994;2022-09-16T11:37:59;9.82;;;1.25;;
59127;SDS011;44912;52.754;5.994;2022-09-16T11:40:54;11.05;;;1.42;;
59127;SDS011;44912;52.754;5.994;2022-09-16T11:49:20;6.93;;;1.35;;
59127;SDS011;44912;52.754;5.994;2022-09-16T11:51:57;8.55;;;1.33;;
59127;SDS011;44912;52.754;5.994;2022-09-16T11:57:17;9.90;;;1.17;;
59127;SDS011;44912;52.754;5.994;2022-09-16T11:59:48;7.00;;;1.20;;
59127;SDS011;44912;52.754;5.994;2022-09-16T12:02:21;9.13;;;1.30;;
59127;SDS011;44912;52.754;5.994;2022-09-16T12:05:10;13.95;;;2.03;;
59127;SDS011;44912;52.754;5.994;2022-09-16T12:07:45;10.82;;;2.22;;
59127;SDS011;44912;52.754;5.994;2022-09-16T12:10:24;10.70;;;1.40;;
59127;SDS011;44912;52.754;5.994;2022-09-16T12:13:02;9.38;;;1.45;;
59127;SDS011;44912;52.754;5.994;2022-09-16T12:18:47;7.93;;;1.40;;
59127;SDS011;44912;52.754;5.994;2022-09-16T12:21:18;10.57;;;1.55;;
59127;SDS011;44912;52.754;5.994;2022-09-16T12:24:13;7.53;;;1.35;;
59127;SDS011;44912;52.754;5.994;2022-09-16T12:26:54;6.65;;;1.20;;
59127;SDS011;44912;52.754;5.994;2022-09-16T12:29:40;6.70;;;1.05;;
59127;SDS011;44912;52.754;5.994;2022-09-16T12:32:18;8.60;;;1.30;;
59127;SDS011;44912;52.754;5.994;2022-09-16T12:34:57;9.10;;;1.40;;
59127;SDS011;44912;52.754;5.994;2022-09-16T12:39:58;9.32;;;1.77;;
59127;SDS011;44912;52.754;5.994;2022-09-16T12:42:51;8.85;;;1.38;;
59127;SDS011;44912;52.754;5.994;2022-09-16T12:45:30;6.28;;;1.20;;
59127;SDS011;44912;52.754;5.994;2022-09-16T12:51:07;8.13;;;1.20;;
59127;SDS011;44912;52.754;5.994;2022-09-16T12:53:58;9.60;;;1.60;;
59127;SDS011;44912;52.754;5.994;2022-09-16T13:00:04;8.65;;;1.38;;
59127;SDS011;44912;52.754;5.994;2022-09-16T13:02:50;13.23;;;1.70;;
59127;SDS011;44912;52.754;5.994;2022-09-16T13:05:20;11.25;;;1.50;;
59127;SDS011;44912;52.754;5.994;2022-09-16T13:07:52;10.18;;;1.52;;
59127;SDS011;44912;52.754;5.994;2022-09-16T13:10:23;10.02;;;1.90;;
59127;SDS011;44912;52.754;5.994;2022-09-16T13:13:01;12.32;;;1.77;;
59127;SDS011;44912;52.754;5.994;2022-09-16T13:15:33;9.82;;;1.75;;
59127;SDS011;44912;52.754;5.994;2022-09-16T13:18:07;8.18;;;1.42;;
59127;SDS011;44912;52.754;5.994;2022-09-16T13:23:28;11.88;;;1.67;;
59127;SDS011;44912;52.754;5.994;2022-09-16T13:26:02;10.23;;;1.65;;
59127;SDS011;44912;52.754;5.994;2022-09-16T13:31:08;9.73;;;1.75;;
59127;SDS011;44912;52.754;5.994;2022-09-16T13:33:44;10.27;;;1.48;;
59127;SDS011;44912;52.754;5.994;2022-09-16T13:38:42;9.40;;;1.40;;
59127;SDS011;44912;52.754;5.994;2022-09-16T13:41:10;10.70;;;1.52;;
59127;SDS011;44912;52.754;5.994;2022-09-16T13:46:07;7.10;;;1.42;;
59127;SDS011;44912;52.754;5.994;2022-09-16T13:48:37;10.88;;;1.95;;
59127;SDS011;44912;52.754;5.994;2022-09-16T13:51:08;13.27;;;2.22;;
59127;SDS011;44912;52.754;5.994;2022-09-16T13:53:43;14.02;;;1.73;;
59127;SDS011;44912;52.754;5.994;2022-09-16T14:01:46;9.20;;;1.55;;
59127;SDS011;44912;52.754;5.994;2022-09-16T14:07:12;12.77;;;2.63;;
59127;SDS011;44912;52.754;5.994;2022-09-16T14:10:45;12.35;;;1.80;;
59127;SDS011;44912;52.754;5.994;2022-09-16T14:13:10;12.60;;;1.85;;
59127;SDS011;44912;52.754;5.994;2022-09-16T14:15:39;12.38;;;2.00;;
59127;SDS011;44912;52.754;5.994;2022-09-16T14:18:09;12.63;;;2.00;;
59127;SDS011;44912;52.754;5.994;2022-09-16T14:20:38;13.68;;;2.30;;
59127;SDS011;44912;52.754;5.994;2022-09-16T14:23:17;13.13;;;1.90;;
59127;SDS011;44912;52.754;5.994;2022-09-16T14:25:43;12.60;;;2.08;;
59127;SDS011;44912;52.754;5.994;2022-09-16T14:28:23;9.55;;;2.00;;
59127;SDS011;44912;52.754;5.994;2022-09-16T14:30:57;11.13;;;1.95;;
59127;SDS011;44912;52.754;5.994;2022-09-16T14:33:31;12.63;;;2.25;;
59127;SDS011;44912;52.754;5.994;2022-09-16T14:36:00;12.00;;;1.92;;
59127;SDS011;44912;52.754;5.994;2022-09-16T14:39:08;9.85;;;1.80;;
59127;SDS011;44912;52.754;5.994;2022-09-16T14:41:42;16.92;;;2.33;;
59127;SDS011;44912;52.754;5.994;2022-09-16T14:44:17;13.75;;;1.73;;
59127;SDS011;44912;52.754;5.994;2022-09-16T14:46:51;10.30;;;1.85;;
59127;SDS011;44912;52.754;5.994;2022-09-16T14:49:40;11.63;;;1.98;;
59127;SDS011;44912;52.754;5.994;2022-09-16T14:52:14;9.30;;;2.17;;
59127;SDS011;44912;52.754;5.994;2022-09-16T14:54:49;13.55;;;2.13;;
59127;SDS011;44912;52.754;5.994;2022-09-16T14:57:19;15.65;;;2.28;;
59127;SDS011;44912;52.754;5.994;2022-09-16T14:59:49;13.48;;;2.38;;
59127;SDS011;44912;52.754;5.994;2022-09-16T15:02:23;13.13;;;2.25;;
59127;SDS011;44912;52.754;5.994;2022-09-16T15:04:56;8.80;;;1.80;;
59127;SDS011;44912;52.754;5.994;2022-09-16T15:07:27;13.27;;;2.00;;
59127;SDS011;44912;52.754;5.994;2022-09-16T15:10:00;10.43;;;1.90;;
59127;SDS011;44912;52.754;5.994;2022-09-16T15:12:33;10.32;;;1.55;;
59127;SDS011;44912;52.754;5.994;2022-09-16T15:15:09;13.60;;;2.25;;
59127;SDS011;44912;52.754;5.994;2022-09-16T15:17:41;11.57;;;2.10;;
59127;SDS011;44912;52.754;5.994;2022-09-16T15:20:20;13.25;;;2.40;;
59127;SDS011;44912;52.754;5.994;2022-09-16T15:22:48;11.18;;;1.90;;
59127;SDS011;44912;52.754;5.994;2022-09-16T15:25:24;14.02;;;2.47;;
59127;SDS011;44912;52.754;5.994;2022-09-16T15:28:06;14.60;;;2.20;;
59127;SDS011;44912;52.754;5.994;2022-09-16T15:30:50;15.15;;;2.42;;
59127;SDS011;44912;52.754;5.994;2022-09-16T15:35:48;16.50;;;2.22;;
59127;SDS011;44912;52.754;5.994;2022-09-16T15:38:19;11.27;;;1.90;;
59127;SDS011;44912;52.754;5.994;2022-09-16T15:40:46;16.08;;;1.98;;
59127;SDS011;44912;52.754;5.994;2022-09-16T15:43:19;10.68;;;1.70;;
59127;SDS011;44912;52.754;5.994;2022-09-16T15:45:59;11.02;;;1.73;;
59127;SDS011;44912;52.754;5.994;2022-09-16T15:48:33;10.38;;;1.45;;
59127;SDS011;44912;52.754;5.994;2022-09-16T15:51:08;8.85;;;1.85;;
59127;SDS011;44912;52.754;5.994;2022-09-16T15:54:18;9.98;;;1.48;;
59127;SDS011;44912;52.754;5.994;2022-09-16T15:57:05;12.52;;;1.50;;
59127;SDS011;44912;52.754;5.994;2022-09-16T16:05:04;10.40;;;1.60;;
59127;SDS011;44912;52.754;5.994;2022-09-16T16:10:14;11.10;;;1.80;;
59127;SDS011;44912;52.754;5.994;2022-09-16T16:12:45;11.07;;;1.50;;
59127;SDS011;44912;52.754;5.994;2022-09-16T16:15:12;9.15;;;1.60;;
59127;SDS011;44912;52.754;5.994;2022-09-16T16:17:39;12.57;;;1.95;;
59127;SDS011;44912;52.754;5.994;2022-09-16T16:20:06;11.63;;;1.80;;
59127;SDS011;44912;52.754;5.994;2022-09-16T16:22:32;11.80;;;1.75;;
59127;SDS011;44912;52.754;5.994;2022-09-16T16:24:58;10.30;;;1.50;;
59127;SDS011;44912;52.754;5.994;2022-09-16T16:27:24;15.13;;;1.67;;
59127;SDS011;44912;52.754;5.994;2022-09-16T16:29:49;8.98;;;1.80;;
59127;SDS011;44912;52.754;5.994;2022-09-16T16:32:15;9.70;;;1.55;;
59127;SDS011;44912;52.754;5.994;2022-09-16T16:34:42;8.18;;;1.73;;
59127;SDS011;44912;52.754;5.994;2022-09-16T16:37:09;8.85;;;1.80;;
59127;SDS011;44912;52.754;5.994;2022-09-16T16:39:37;9.45;;;1.40;;
59127;SDS011;44912;52.754;5.994;2022-09-16T16:42:02;11.75;;;2.10;;
59127;SDS011;44912;52.754;5.994;2022-09-16T16:44:32;9.98;;;1.63;;
59127;SDS011;44912;52.754;5.994;2022-09-16T16:46:59;10.10;;;1.48;;
59127;SDS011;44912;52.754;5.994;2022-09-16T16:49:25;6.57;;;1.25;;
59127;SDS011;44912;52.754;5.994;2022-09-16T16:51:51;7.55;;;0.98;;
59127;SDS011;44912;52.754;5.994;2022-09-16T16:54:19;9.52;;;1.52;;
59127;SDS011;44912;52.754;5.994;2022-09-16T16:56:46;8.75;;;1.48;;
59127;SDS011;44912;52.754;5.994;2022-09-16T16:59:12;8.27;;;1.80;;
59127;SDS011;44912;52.754;5.994;2022-09-16T17:01:38;5.50;;;1.10;;
59127;SDS011;44912;52.754;5.994;2022-09-16T17:04:04;8.20;;;1.20;;
59127;SDS011;44912;52.754;5.994;2022-09-16T17:06:30;7.00;;;1.38;;
59127;SDS011;44912;52.754;5.994;2022-09-16T17:08:56;9.15;;;1.40;;
59127;SDS011;44912;52.754;5.994;2022-09-16T17:11:23;6.82;;;1.30;;
59127;SDS011;44912;52.754;5.994;2022-09-16T17:13:50;10.07;;;1.58;;
59127;SDS011;44912;52.754;5.994;2022-09-16T17:16:18;12.43;;;1.77;;
59127;SDS011;44912;52.754;5.994;2022-09-16T17:18:46;10.40;;;1.92;;
59127;SDS011;44912;52.754;5.994;2022-09-16T17:21:13;11.75;;;1.60;;
59127;SDS011;44912;52.754;5.994;2022-09-16T17:23:45;9.88;;;1.70;;
59127;SDS011;44912;52.754;5.994;2022-09-16T17:26:11;8.23;;;1.50;;